Terminal Aerodrome Forecast
Issued by NWS

Home | Current Version | Previous Version | Text Only | Print | Product List | Glossary On
Versions: 1 2 3 4 5 6 7 8 9 10 11 12 13 14 15 16 17 18 19 20 21 22 23 24 25 26
000
FTUS45 KBOU 152305 AAB
TAFAPA
TAF AMD
KAPA 152305Z 1523/1618 01005KT 5SM BR BKN020 OVC040
      TEMPO 1602/1604 2SM -SN BR OVC015
     FM160500 33006KT 4SM BR VCSH BKN012 OVC020
      TEMPO 1606/1610 1SM -SN BR OVC008
     FM161000 33006KT 2SM -SN BR OVC008=

USA.gov is the U.S. government's official web portal to all federal, state and local government web resources and services.